Time;durP1;ratioP1;P1;durP2;ratioP2;P2;SDS_P1;SDS_P2;PMS_P1;PMS_P2;Temp;Humidity;BMP_temperature;BMP_pressure;BME280_temperature;BME280_humidity;BME280_pressure;Samples;Min_cycle;Max_cycle;Signal;HPM_P1;HPM_P2
2023/06/29 00:02:44;;;;;;;8.13;5.28;;;;;;;19.36;100.00;100768.28;6143967;28;20053;-91
2023/06/29 00:05:45;;;;;;;6.72;4.85;;;;;;;19.45;100.00;100767.25;6144839;28;20051;-91
2023/06/29 00:08:48;;;;;;;5.45;4.63;;;;;;;19.50;100.00;100764.94;6141179;28;20043;-90
2023/06/29 00:11:50;;;;;;;7.68;4.97;;;;;;;19.47;100.00;100767.88;6148918;28;20517;-91
2023/06/29 00:14:51;;;;;;;6.80;5.30;;;;;;;19.44;100.00;100760.34;6140768;28;20121;-90
2023/06/29 00:17:54;;;;;;;5.72;5.22;;;;;;;19.43;100.00;100765.75;6138814;28;20050;-91
2023/06/29 00:20:57;;;;;;;7.03;5.38;;;;;;;19.41;100.00;100763.34;6136767;28;20043;-91
2023/06/29 00:23:58;;;;;;;6.55;5.90;;;;;;;19.40;100.00;100761.69;6142805;28;20502;-91
2023/06/29 00:27:00;;;;;;;6.80;6.10;;;;;;;19.35;100.00;100749.09;6154807;28;20038;-91
2023/06/29 00:30:02;;;;;;;7.40;5.85;;;;;;;19.35;100.00;100759.59;6160565;28;20500;-91
2023/06/29 00:33:05;;;;;;;6.78;6.03;;;;;;;19.36;100.00;100757.78;6146746;28;20040;-90
2023/06/29 00:36:09;;;;;;;7.05;6.22;;;;;;;19.37;100.00;100751.53;6138529;28;20487;-91
2023/06/29 00:39:10;;;;;;;7.10;6.40;;;;;;;19.37;100.00;100752.34;6154260;28;20524;-91
2023/06/29 00:42:12;;;;;;;7.47;6.18;;;;;;;19.37;100.00;100747.09;6155076;28;20047;-91
2023/06/29 00:45:16;;;;;;;7.05;5.95;;;;;;;19.31;100.00;100747.78;6141028;28;20075;-91
2023/06/29 00:48:17;;;;;;;9.88;6.00;;;;;;;19.32;100.00;100743.34;6123570;28;20047;-90
2023/06/29 00:51:19;;;;;;;6.97;6.32;;;;;;;19.32;100.00;100738.09;6138527;28;20520;-91
2023/06/29 00:54:22;;;;;;;8.13;6.38;;;;;;;19.34;100.00;100725.63;6139372;28;20118;-91
2023/06/29 00:57:24;;;;;;;7.03;6.38;;;;;;;19.36;100.00;100734.97;6135206;28;20043;-91
2023/06/29 01:00:26;;;;;;;7.43;6.60;;;;;;;19.32;100.00;100733.66;6122366;29;20141;-91
2023/06/29 01:03:27;;;;;;;6.72;6.10;;;;;;;19.41;100.00;100731.81;6147214;28;20043;-91
2023/06/29 01:06:33;;;;;;;9.13;8.23;;;;;;;19.48;100.00;100732.78;6148503;28;20241;-91
2023/06/29 01:09:36;;;;;;;7.80;7.05;;;;;;;19.34;100.00;100728.25;6136185;28;20050;-91
2023/06/29 01:12:40;;;;;;;7.68;6.78;;;;;;;19.32;100.00;100727.59;6135095;28;20105;-91
2023/06/29 01:15:43;;;;;;;7.28;6.57;;;;;;;19.33;100.00;100724.81;6145550;28;20151;-91
2023/06/29 01:18:48;;;;;;;7.03;6.32;;;;;;;19.32;100.00;100727.59;6142870;28;20063;-90
2023/06/29 01:22:00;;;;;;;9.27;6.40;;;;;;;19.34;100.00;100723.00;6144499;28;20386;-91
2023/06/29 01:25:03;;;;;;;6.18;5.57;;;;;;;19.29;100.00;100720.09;6148846;28;20047;-91
2023/06/29 01:28:09;;;;;;;6.13;5.47;;;;;;;19.29;100.00;100717.47;6128628;28;20050;-91
2023/06/29 01:31:11;;;;;;;7.05;5.53;;;;;;;19.24;100.00;100709.28;6146144;28;20046;-90
2023/06/29 01:34:13;;;;;;;6.57;5.97;;;;;;;19.22;100.00;100706.03;6146470;28;20469;-90
2023/06/29 01:37:19;;;;;;;6.63;5.68;;;;;;;19.22;100.00;100703.41;6153907;28;20143;-91
2023/06/29 01:40:27;;;;;;;7.28;6.60;;;;;;;19.21;100.00;100707.03;6139694;29;20058;-90
2023/06/29 01:43:32;;;;;;;7.32;6.18;;;;;;;19.22;100.00;100706.81;6150173;28;20513;-90
2023/06/29 01:46:35;;;;;;;10.93;6.95;;;;;;;19.25;100.00;100710.91;6145700;28;20518;-90
2023/06/29 01:49:37;;;;;;;7.82;6.15;;;;;;;19.25;100.00;100706.47;6144246;28;20390;-91
2023/06/29 01:52:39;;;;;;;7.68;6.90;;;;;;;19.24;100.00;100701.41;6150029;28;20511;-90
2023/06/29 01:55:42;;;;;;;6.55;5.95;;;;;;;19.24;100.00;100704.03;6141967;28;20042;-90
2023/06/29 01:58:44;;;;;;;7.10;6.20;;;;;;;19.24;100.00;100698.78;6141734;28;20063;-90
2023/06/29 02:01:46;;;;;;;8.82;5.95;;;;;;;19.22;100.00;100701.59;6158273;28;20063;-90
2023/06/29 02:04:48;;;;;;;7.90;7.03;;;;;;;19.21;100.00;100694.72;6145008;28;20051;-90
2023/06/29 02:07:50;;;;;;;7.07;6.38;;;;;;;19.23;100.00;100681.41;6152591;28;20097;-90
2023/06/29 02:10:54;;;;;;;6.80;6.10;;;;;;;19.19;100.00;100686.19;6138638;28;20086;-91
2023/06/29 02:13:55;;;;;;;10.20;7.10;;;;;;;19.24;100.00;100683.03;6143653;28;20063;-91
2023/06/29 02:16:57;;;;;;;7.40;6.70;;;;;;;19.24;100.00;100688.28;6126239;29;20494;-91
2023/06/29 02:19:59;;;;;;;8.98;6.57;;;;;;;19.21;100.00;100684.22;6126165;29;20055;-91
2023/06/29 02:23:01;;;;;;;8.75;7.05;;;;;;;19.17;100.00;100677.66;6164127;28;20130;-90
2023/06/29 02:26:03;;;;;;;9.13;7.60;;;;;;;19.15;100.00;100690.13;6145221;28;20129;-90
2023/06/29 02:29:10;;;;;;;9.13;7.25;;;;;;;19.11;100.00;100689.69;6130737;28;20039;-91
2023/06/29 02:32:12;;;;;;;8.07;7.28;;;;;;;19.11;100.00;100683.63;6142369;28;20509;-91
2023/06/29 02:35:13;;;;;;;8.40;7.60;;;;;;;19.08;100.00;100691.81;6162321;28;20454;-91
2023/06/29 02:38:17;;;;;;;10.65;6.97;;;;;;;19.05;100.00;100692.97;6154864;28;20417;-90
2023/06/29 02:41:18;;;;;;;10.50;7.43;;;;;;;19.02;100.00;100687.28;6150613;28;20046;-90
2023/06/29 02:44:20;;;;;;;8.88;7.75;;;;;;;18.91;100.00;100688.47;6144668;28;20474;-90
2023/06/29 02:47:22;;;;;;;8.85;7.75;;;;;;;18.92;100.00;100684.88;6150375;28;20043;-90
2023/06/29 02:50:24;;;;;;;10.50;8.13;;;;;;;18.92;100.00;100683.03;6140068;29;20050;-90
2023/06/29 02:53:26;;;;;;;9.82;8.15;;;;;;;18.88;100.00;100681.78;6141061;28;20047;-91
2023/06/29 02:56:28;;;;;;;9.32;8.35;;;;;;;18.87;100.00;100685.38;6141504;28;20039;-91
2023/06/29 02:59:30;;;;;;;11.20;7.63;;;;;;;18.86;100.00;100685.56;6139708;28;20089;-90
2023/06/29 03:02:31;;;;;;;9.82;8.40;;;;;;;18.83;100.00;100672.75;6140265;28;20178;-90
2023/06/29 03:05:34;;;;;;;11.52;9.10;;;;;;;18.79;100.00;100677.56;6128311;28;20050;-90
2023/06/29 03:08:36;;;;;;;11.32;9.15;;;;;;;18.80;100.00;100668.69;6138691;28;20095;-90
2023/06/29 03:11:38;;;;;;;9.77;8.77;;;;;;;18.87;100.00;100677.50;6139991;28;20040;-90
2023/06/29 03:14:40;;;;;;;12.15;8.32;;;;;;;18.87;100.00;100669.63;6141541;28;20054;-91
2023/06/29 03:17:42;;;;;;;10.63;8.02;;;;;;;18.89;100.00;100672.09;6141109;28;20047;-91
2023/06/29 03:20:44;;;;;;;12.02;8.55;;;;;;;18.92;100.00;100669.13;6140910;28;20476;-91
2023/06/29 03:23:46;;;;;;;11.40;8.52;;;;;;;18.95;100.00;100671.41;6140024;28;20095;-91
2023/06/29 03:26:48;;;;;;;9.75;8.68;;;;;;;18.97;100.00;100672.03;6142766;28;20043;-91
2023/06/29 03:29:52;;;;;;;9.77;8.30;;;;;;;18.97;100.00;100669.41;6141270;28;20043;-91
2023/06/29 03:32:55;;;;;;;11.98;9.25;;;;;;;19.01;100.00;100669.91;6130274;28;20051;-91
2023/06/29 03:35:57;;;;;;;12.20;9.07;;;;;;;19.05;100.00;100669.38;6141276;28;20520;-91
2023/06/29 03:38:58;;;;;;;11.27;8.35;;;;;;;19.04;100.00;100667.75;6139261;28;20055;-91
2023/06/29 03:42:00;;;;;;;10.55;8.57;;;;;;;19.07;100.00;100672.63;6139108;28;20047;-91
2023/06/29 03:45:02;;;;;;;9.98;8.48;;;;;;;19.14;100.00;100667.53;6143603;28;20050;-90
2023/06/29 03:48:04;;;;;;;12.48;9.45;;;;;;;19.18;100.00;100658.31;6144474;28;20039;-91
2023/06/29 03:51:06;;;;;;;9.85;8.10;;;;;;;19.21;100.00;100665.84;6139552;28;20055;-90
2023/06/29 03:54:08;;;;;;;13.45;8.88;;;;;;;19.25;100.00;100664.47;6140774;28;20040;-91
2023/06/29 03:57:10;;;;;;;15.18;9.35;;;;;;;19.26;100.00;100657.44;6139681;28;20417;-91
2023/06/29 04:00:12;;;;;;;16.80;10.30;;;;;;;19.30;100.00;100658.72;6142818;28;20047;-91
2023/06/29 04:03:14;;;;;;;11.45;8.45;;;;;;;19.35;100.00;100659.84;6145101;28;20409;-90
2023/06/29 04:06:16;;;;;;;9.90;8.93;;;;;;;19.37;100.00;100655.22;6146942;28;20069;-90
2023/06/29 04:09:18;;;;;;;9.85;8.88;;;;;;;19.37;100.00;100649.16;6141147;28;20520;-90
2023/06/29 04:12:20;;;;;;;9.98;8.98;;;;;;;19.36;100.00;100653.59;6140045;28;20135;-90
2023/06/29 04:15:21;;;;;;;10.55;8.73;;;;;;;19.40;100.00;100655.84;6138130;28;20043;-91
2023/06/29 04:18:23;;;;;;;10.10;9.05;;;;;;;19.42;100.00;100654.69;6138849;28;20047;-90
2023/06/29 04:21:25;;;;;;;11.25;9.30;;;;;;;19.38;100.00;100645.56;6141392;28;20391;-90
2023/06/29 04:24:27;;;;;;;10.45;8.88;;;;;;;19.44;100.00;100649.28;6131591;28;20055;-90
2023/06/29 04:27:31;;;;;;;11.23;9.27;;;;;;;19.48;100.00;100648.75;6150842;28;20101;-90
2023/06/29 04:30:36;;;;;;;12.02;9.85;;;;;;;19.54;100.00;100648.03;6124610;28;20035;-90
2023/06/29 04:33:38;;;;;;;12.05;10.10;;;;;;;19.57;100.00;100647.66;6130304;28;20052;-90
2023/06/29 04:36:40;;;;;;;11.40;10.00;;;;;;;19.62;100.00;100638.44;6135598;28;20485;-90
2023/06/29 04:39:41;;;;;;;12.25;10.00;;;;;;;19.68;100.00;100649.09;6142007;28;20058;-90
2023/06/29 04:42:49;;;;;;;12.45;10.32;;;;;;;19.76;100.00;100646.41;6137003;28;20051;-90
2023/06/29 04:45:51;;;;;;;13.43;10.65;;;;;;;19.83;100.00;100645.69;6133857;28;20387;-90
2023/06/29 04:48:53;;;;;;;14.32;10.65;;;;;;;19.89;100.00;100648.41;6140502;28;20663;-90
2023/06/29 04:51:55;;;;;;;12.13;10.52;;;;;;;19.94;100.00;100643.44;6139750;28;20043;-90
2023/06/29 04:55:00;;;;;;;12.27;10.40;;;;;;;20.03;100.00;100641.53;6143701;28;20064;-90
2023/06/29 04:58:03;;;;;;;14.80;10.32;;;;;;;20.13;100.00;100641.28;6146313;28;20064;-90
2023/06/29 05:01:05;;;;;;;13.07;10.43;;;;;;;20.28;100.00;100641.28;6143577;28;20531;-90
2023/06/29 05:04:07;;;;;;;11.18;10.07;;;;;;;20.35;100.00;100635.13;6150978;28;20044;-90
2023/06/29 05:07:09;;;;;;;12.18;10.55;;;;;;;20.32;100.00;100632.84;6150899;28;20065;-90
2023/06/29 05:10:11;;;;;;;13.50;10.70;;;;;;;20.27;100.00;100627.31;6158990;28;20039;-91
2023/06/29 05:13:13;;;;;;;13.73;10.35;;;;;;;20.13;100.00;100623.69;6147580;28;20039;-91
2023/06/29 05:16:15;;;;;;;15.63;10.48;;;;;;;20.07;100.00;100629.66;6146462;28;20448;-91
2023/06/29 05:19:17;;;;;;;11.90;10.13;;;;;;;20.05;100.00;100629.06;6144824;28;20402;-91
2023/06/29 05:22:19;;;;;;;12.20;10.98;;;;;;;20.20;100.00;100631.69;6142951;28;20421;-91
2023/06/29 05:25:21;;;;;;;13.43;10.43;;;;;;;20.44;100.00;100625.28;6145322;28;20043;-91
2023/06/29 05:28:23;;;;;;;11.18;10.07;;;;;;;20.77;100.00;100625.72;6144817;28;20398;-91
2023/06/29 05:31:25;;;;;;;11.63;10.52;;;;;;;21.00;100.00;100625.56;6148409;28;20039;-91
2023/06/29 05:34:26;;;;;;;12.50;9.85;;;;;;;21.23;100.00;100619.28;6148770;28;20095;-91
2023/06/29 05:37:34;;;;;;;14.32;10.30;;;;;;;21.47;100.00;100618.13;6134109;28;20126;-90
2023/06/29 05:40:36;;;;;;;14.02;9.63;;;;;;;21.68;100.00;100609.34;6132719;28;20122;-90
2023/06/29 05:43:38;;;;;;;15.30;10.55;;;;;;;21.76;100.00;100611.03;6142957;28;20122;-90
2023/06/29 05:46:40;;;;;;;14.38;10.18;;;;;;;21.91;100.00;100611.72;6154532;28;20112;-91
2023/06/29 05:49:43;;;;;;;13.90;10.95;;;;;;;22.04;100.00;100614.47;6143931;28;20070;-91
2023/06/29 05:52:45;;;;;;;14.38;9.45;;;;;;;21.96;100.00;100617.22;6135991;28;20047;-90
2023/06/29 05:55:50;;;;;;;13.45;10.35;;;;;;;22.05;100.00;100615.28;6141907;28;20035;-91
2023/06/29 05:58:53;;;;;;;13.60;10.65;;;;;;;22.17;100.00;100620.81;6141593;28;20043;-91
2023/06/29 06:01:56;;;;;;;13.13;10.02;;;;;;;22.34;100.00;100608.97;6142070;28;20043;-90
2023/06/29 06:04:57;;;;;;;11.75;10.00;;;;;;;22.44;100.00;100612.03;6136127;28;20072;-91
2023/06/29 06:07:59;;;;;;;13.75;9.65;;;;;;;22.51;100.00;100602.34;6140615;28;20043;-90
2023/06/29 06:11:01;;;;;;;14.15;9.95;;;;;;;22.72;100.00;100608.47;6139682;28;20031;-91
2023/06/29 06:14:03;;;;;;;11.98;8.77;;;;;;;22.79;100.00;100601.38;6143776;28;20035;-91
2023/06/29 06:17:05;;;;;;;13.65;9.30;;;;;;;22.87;100.00;100603.84;6138336;28;20502;-90
2023/06/29 06:20:09;;;;;;;13.95;9.10;;;;;;;22.91;100.00;100594.50;6141137;28;20582;-91
2023/06/29 06:23:10;;;;;;;18.98;9.60;;;;;;;22.96;100.00;100597.38;6134311;28;20046;-91
2023/06/29 06:26:12;;;;;;;14.00;8.45;;;;;;;23.05;100.00;100603.28;6137304;28;20054;-90
2023/06/29 06:29:14;;;;;;;11.38;8.88;;;;;;;23.11;100.00;100604.31;6136623;28;20457;-91
2023/06/29 06:32:16;;;;;;;11.30;8.40;;;;;;;23.17;100.00;100603.50;6148654;28;20039;-91
2023/06/29 06:35:18;;;;;;;11.63;8.60;;;;;;;23.26;100.00;100606.78;6144792;28;20193;-90
2023/06/29 06:38:20;;;;;;;13.77;8.48;;;;;;;23.33;100.00;100597.84;6146465;28;20043;-90
2023/06/29 06:41:22;;;;;;;17.33;9.07;;;;;;;23.42;100.00;100606.34;6149800;28;20050;-90
2023/06/29 06:44:24;;;;;;;16.08;9.20;;;;;;;23.43;100.00;100608.00;6147685;28;20243;-90
2023/06/29 06:47:27;;;;;;;14.88;8.27;;;;;;;23.48;100.00;100610.84;6146188;28;20058;-90
2023/06/29 06:50:29;;;;;;;17.50;9.23;;;;;;;23.61;100.00;100597.59;6142312;28;20102;-90
2023/06/29 06:53:31;;;;;;;10.75;8.25;;;;;;;23.71;100.00;100599.81;6139537;28;20042;-90
2023/06/29 06:56:33;;;;;;;9.88;7.10;;;;;;;23.88;100.00;100596.78;6121454;28;20494;-91
2023/06/29 06:59:34;;;;;;;9.13;6.55;;;;;;;23.97;100.00;100592.88;6133375;28;20506;-91
2023/06/29 07:02:37;;;;;;;10.23;6.05;;;;;;;24.06;100.00;100589.00;6134855;28;20401;-91
2023/06/29 07:05:39;;;;;;;7.85;5.43;;;;;;;24.15;100.00;100595.69;6130940;28;20039;-90
2023/06/29 07:08:41;;;;;;;9.30;5.53;;;;;;;24.27;100.00;100593.19;6148717;28;20039;-91
2023/06/29 07:11:43;;;;;;;9.30;5.70;;;;;;;24.48;100.00;100600.06;6136831;28;20089;-91
2023/06/29 07:14:46;;;;;;;6.45;5.20;;;;;;;24.62;100.00;100593.69;6144044;28;20051;-91
2023/06/29 07:17:48;;;;;;;10.05;5.53;;;;;;;24.64;100.00;100594.25;6148837;28;20506;-90
2023/06/29 07:20:50;;;;;;;8.88;5.43;;;;;;;24.68;100.00;100590.16;6137101;28;20094;-91
2023/06/29 07:23:55;;;;;;;9.10;5.15;;;;;;;24.88;100.00;100591.88;6137196;28;20039;-90
2023/06/29 07:26:59;;;;;;;8.35;4.70;;;;;;;24.97;100.00;100587.13;6136949;28;20630;-91
2023/06/29 07:30:01;;;;;;;10.00;5.60;;;;;;;24.97;100.00;100587.97;6144046;28;20039;-91
2023/06/29 07:33:03;;;;;;;8.15;4.93;;;;;;;25.02;100.00;100585.47;6151875;28;20039;-91
2023/06/29 07:36:05;;;;;;;12.57;5.18;;;;;;;25.06;100.00;100586.66;6149154;28;20058;-90
2023/06/29 07:39:07;;;;;;;9.82;4.90;;;;;;;24.99;100.00;100575.28;6144559;28;20053;-91
2023/06/29 07:42:09;;;;;;;9.60;5.05;;;;;;;25.10;100.00;100579.09;6138195;28;20126;-91
2023/06/29 07:45:13;;;;;;;8.50;4.63;;;;;;;25.14;100.00;100577.63;6136693;28;20043;-91
2023/06/29 07:48:15;;;;;;;9.60;5.47;;;;;;;25.27;100.00;100577.56;6143835;28;20355;-91
2023/06/29 07:51:17;;;;;;;8.07;4.88;;;;;;;25.30;100.00;100568.38;6140754;28;20517;-91
2023/06/29 07:54:19;;;;;;;9.82;5.15;;;;;;;25.44;100.00;100566.38;6145439;28;20051;-91
2023/06/29 07:57:21;;;;;;;9.45;5.03;;;;;;;25.52;100.00;100558.19;6140214;28;20067;-91
2023/06/29 08:00:26;;;;;;;6.10;4.93;;;;;;;25.65;100.00;100567.84;6142398;28;20039;-91
2023/06/29 08:03:28;;;;;;;8.75;5.40;;;;;;;25.76;100.00;100567.94;6139842;28;20031;-91
2023/06/29 08:06:34;;;;;;;7.03;4.43;;;;;;;25.92;100.00;100563.88;6143176;28;20047;-91
2023/06/29 08:09:39;;;;;;;8.25;4.78;;;;;;;26.18;100.00;100567.25;6137781;28;20130;-90
2023/06/29 08:12:40;;;;;;;10.63;5.22;;;;;;;26.26;100.00;100553.69;6143129;28;20047;-90
2023/06/29 08:15:42;;;;;;;10.48;5.10;;;;;;;26.28;100.00;100559.56;6138415;28;20048;-90
2023/06/29 08:18:44;;;;;;;8.10;4.50;;;;;;;26.32;100.00;100554.63;6132706;28;20043;-91
2023/06/29 08:21:47;;;;;;;7.20;4.13;;;;;;;26.53;100.00;100554.16;6137036;28;20300;-91
2023/06/29 08:24:51;;;;;;;9.82;4.68;;;;;;;26.62;100.00;100549.34;6133360;28;20163;-90
2023/06/29 08:27:53;;;;;;;8.77;4.63;;;;;;;26.69;100.00;100557.22;6134338;28;20031;-90
2023/06/29 08:30:55;;;;;;;5.75;3.70;;;;;;;26.68;100.00;100560.91;6139966;28;20047;-90
2023/06/29 08:33:57;;;;;;;5.88;4.50;;;;;;;26.62;100.00;100552.00;6133222;28;20511;-90
2023/06/29 08:36:58;;;;;;;6.68;4.03;;;;;;;26.41;100.00;100556.75;6149243;28;20055;-91
2023/06/29 08:40:00;;;;;;;6.50;4.20;;;;;;;26.30;100.00;100556.69;6135170;28;20083;-90
2023/06/29 08:43:02;;;;;;;6.25;5.60;;;;;;;26.10;100.00;100559.59;6144566;28;20412;-90
2023/06/29 08:46:04;;;;;;;6.65;4.63;;;;;;;25.94;100.00;100561.03;6138957;28;20070;-90
2023/06/29 08:49:08;;;;;;;8.90;5.43;;;;;;;25.88;100.00;100568.00;6123369;28;20046;-90
2023/06/29 08:52:18;;;;;;;7.07;4.18;;;;;;;25.83;100.00;100564.38;6137237;28;20671;-90
2023/06/29 08:55:20;;;;;;;;;;;;;;;25.79;100.00;100564.03;6114857;28;20036;-90
2023/06/29 08:58:23;;;;;;;5.55;4.30;;;;;;;25.85;100.00;100559.66;6133679;28;19970;-90
2023/06/29 09:01:27;;;;;;;5.53;4.60;;;;;;;25.90;100.00;100563.31;6131693;28;20043;-90
2023/06/29 09:04:29;;;;;;;9.15;4.10;;;;;;;25.84;100.00;100564.16;6138487;28;20051;-90
2023/06/29 09:07:31;;;;;;;6.35;4.15;;;;;;;25.73;100.00;100564.88;6139274;28;20163;-90
2023/06/29 09:10:38;;;;;;;8.13;4.53;;;;;;;25.71;100.00;100557.16;6128245;28;20528;-90
2023/06/29 09:13:40;;;;;;;5.90;4.20;;;;;;;25.72;100.00;100560.63;6145711;28;20051;-90
2023/06/29 09:17:01;;;;;;;5.63;4.55;;;;;;;25.83;100.00;100562.53;6143981;28;20073;-90
2023/06/29 09:20:13;;;;;;;7.18;5.20;;;;;;;25.93;100.00;100564.69;6135327;28;20066;-90
2023/06/29 09:23:15;;;;;;;7.40;4.43;;;;;;;26.09;100.00;100560.66;6139663;28;20074;-89
2023/06/29 09:26:17;;;;;;;5.60;4.60;;;;;;;26.24;100.00;100554.97;6137314;28;20047;-90
2023/06/29 09:29:20;;;;;;;7.22;4.28;;;;;;;26.45;100.00;100551.78;6140237;28;20133;-89
2023/06/29 09:32:22;;;;;;;5.22;4.03;;;;;;;26.63;100.00;100553.59;6140467;28;20052;-90
2023/06/29 09:35:23;;;;;;;5.90;4.45;;;;;;;26.68;100.00;100545.75;6142413;28;20078;-90
2023/06/29 09:38:30;;;;;;;6.93;4.55;;;;;;;26.66;100.00;100545.22;6138767;28;20042;-90
2023/06/29 09:41:31;;;;;;;4.93;4.43;;;;;;;26.54;100.00;100542.50;6149765;28;20054;-90
2023/06/29 09:44:36;;;;;;;5.47;4.43;;;;;;;26.51;100.00;100545.59;6140284;28;20049;-90
2023/06/29 09:47:41;;;;;;;7.35;4.63;;;;;;;26.44;100.00;100534.25;6136278;28;20122;-90
2023/06/29 09:50:50;;;;;;;7.25;4.45;;;;;;;26.55;100.00;100544.13;6132591;28;20055;-90
2023/06/29 09:53:53;;;;;;;6.40;4.40;;;;;;;26.71;100.00;100547.16;6136885;28;20424;-90
2023/06/29 09:56:55;;;;;;;7.10;4.88;;;;;;;26.83;100.00;100543.50;6124902;28;20638;-90
2023/06/29 09:59:57;;;;;;;7.47;4.78;;;;;;;26.96;100.00;100545.16;6150030;28;20038;-90
2023/06/29 10:03:00;;;;;;;7.55;5.20;;;;;;;26.98;100.00;100542.25;6124894;28;20327;-89
2023/06/29 10:06:11;;;;;;;6.78;5.00;;;;;;;27.04;100.00;100541.34;6136116;28;20554;-90
2023/06/29 10:09:16;;;;;;;6.40;4.88;;;;;;;27.01;100.00;100542.59;6138681;28;20043;-89
2023/06/29 10:12:22;;;;;;;7.00;4.60;;;;;;;26.77;100.00;100541.75;6137998;28;20049;-90
2023/06/29 10:15:26;;;;;;;10.32;5.57;;;;;;;26.57;100.00;100544.72;6140420;28;21067;-89
2023/06/29 10:18:36;;;;;;;6.72;5.05;;;;;;;26.48;100.00;100537.25;6135351;28;20047;-90
2023/06/29 10:21:41;;;;;;;7.80;5.03;;;;;;;26.41;100.00;100535.53;6137292;28;20366;-90
2023/06/29 10:25:06;;;;;;;8.88;5.53;;;;;;;26.38;100.00;100535.97;6148201;28;20743;-90
2023/06/29 10:28:09;;;;;;;10.00;5.90;;;;;;;26.35;100.00;100536.41;6136272;28;20047;-90
2023/06/29 10:31:17;;;;;;;9.05;5.57;;;;;;;26.26;100.00;100524.50;6141090;28;20973;-90
2023/06/29 10:34:18;;;;;;;6.40;5.45;;;;;;;26.19;100.00;100531.75;6132349;28;20894;-90
2023/06/29 10:37:35;;;;;;;10.23;5.75;;;;;;;26.19;100.00;100523.78;6138041;28;20434;-94
2023/06/29 10:40:48;;;;;;;7.45;5.53;;;;;;;26.24;100.00;100523.13;6125869;29;20051;-95
2023/06/29 10:43:58;;;;;;;7.43;5.28;;;;;;;26.41;100.00;100519.59;6137979;28;20054;-90
2023/06/29 10:47:02;;;;;;;8.10;6.05;;;;;;;26.48;100.00;100518.66;6138547;28;20047;-90
2023/06/29 10:50:11;;;;;;;9.07;6.22;;;;;;;26.58;100.00;100521.63;6137282;29;20447;-90
2023/06/29 10:53:15;;;;;;;8.52;6.00;;;;;;;26.69;100.00;100517.38;6140327;28;20047;-90
2023/06/29 10:56:38;;;;;;;9.23;5.57;;;;;;;26.66;100.00;100510.69;6131384;28;20734;-90
2023/06/29 10:59:40;;;;;;;13.25;7.35;;;;;;;26.69;100.00;100507.56;6147420;28;20080;-90
2023/06/29 11:02:44;;;;;;;10.70;7.85;;;;;;;26.71;100.00;100505.50;6135912;28;20069;-90
2023/06/29 11:05:54;;;;;;;7.90;6.22;;;;;;;26.89;100.00;100506.44;6131973;28;20051;-90
2023/06/29 11:09:00;;;;;;;;;;;;;;;27.12;100.00;100503.78;6134901;28;20051;-90
2023/06/29 11:12:02;;;;;;;8.40;6.60;;;;;;;27.23;100.00;100504.88;6136560;28;20448;-89
2023/06/29 11:15:15;;;;;;;10.90;7.03;;;;;;;27.10;100.00;100505.06;6138668;28;20057;-90
2023/06/29 11:18:46;;;;;;;9.30;6.40;;;;;;;27.15;100.00;100507.81;6142754;28;20051;-90
2023/06/29 11:21:53;;;;;;;11.20;6.30;;;;;;;27.09;100.00;100504.25;6132613;28;20053;-90
2023/06/29 11:24:55;;;;;;;11.70;6.90;;;;;;;27.16;100.00;100502.28;6143557;28;20050;-90
2023/06/29 11:27:58;;;;;;;11.90;6.75;;;;;;;27.32;100.00;100500.00;6148049;28;20597;-90
2023/06/29 11:31:00;;;;;;;8.85;6.65;;;;;;;27.41;100.00;100495.94;6132526;28;20078;-91
2023/06/29 11:34:02;;;;;;;10.63;6.68;;;;;;;27.51;100.00;100498.81;6108805;28;20132;-90
2023/06/29 11:37:05;;;;;;;12.18;7.68;;;;;;;27.57;100.00;100499.72;6131441;28;20054;-90
2023/06/29 11:40:23;;;;;;;10.68;7.47;;;;;;;27.45;100.00;100500.56;6131503;28;20043;-91
2023/06/29 11:43:28;;;;;;;14.50;7.18;;;;;;;27.30;100.00;100494.91;6135059;28;20051;-90
2023/06/29 11:46:34;;;;;;;15.77;7.20;;;;;;;27.12;100.00;100495.81;6143173;28;20486;-91
2023/06/29 11:49:39;;;;;;;12.88;7.55;;;;;;;27.10;100.00;100489.91;6138628;28;20611;-90
2023/06/29 11:52:44;;;;;;;12.38;7.40;;;;;;;27.20;100.00;100489.38;6132510;28;20039;-90
2023/06/29 11:55:51;;;;;;;10.68;6.82;;;;;;;27.18;100.00;100484.31;6128364;28;20046;-90
2023/06/29 11:58:55;;;;;;;9.27;6.32;;;;;;;27.24;100.00;100482.56;6131644;28;20043;-90
2023/06/29 12:01:57;;;;;;;10.70;7.22;;;;;;;27.24;100.00;100480.69;6120695;29;20303;-90
2023/06/29 12:05:04;;;;;;;11.27;6.68;;;;;;;27.32;100.00;100473.41;6139792;28;20410;-90
2023/06/29 12:08:08;;;;;;;9.52;6.85;;;;;;;27.37;100.00;100478.84;6127925;28;20141;-90
2023/06/29 12:11:16;;;;;;;9.63;6.68;;;;;;;27.48;100.00;100476.16;6136186;28;20047;-90
2023/06/29 12:14:21;;;;;;;10.38;6.75;;;;;;;27.62;100.00;100474.03;6128016;28;20050;-90
2023/06/29 12:17:23;;;;;;;9.82;7.20;;;;;;;27.68;100.00;100469.66;6137028;28;20051;-90
2023/06/29 12:20:27;;;;;;;10.27;6.95;;;;;;;27.62;100.00;100465.25;6135747;28;20043;-90
2023/06/29 12:23:29;;;;;;;10.65;6.30;;;;;;;27.63;100.00;100461.56;6130971;28;20039;-90
2023/06/29 12:26:32;;;;;;;10.48;6.70;;;;;;;27.59;100.00;100457.75;6138883;28;20047;-90
2023/06/29 12:29:33;;;;;;;11.88;7.15;;;;;;;27.58;100.00;100456.97;6137908;28;20062;-90
2023/06/29 12:32:38;;;;;;;11.48;7.32;;;;;;;27.52;100.00;100462.41;6132762;28;20051;-90
2023/06/29 12:35:41;;;;;;;12.40;7.68;;;;;;;27.31;100.00;100461.97;6139646;28;20074;-90
2023/06/29 12:38:44;;;;;;;12.43;7.00;;;;;;;27.11;100.00;100459.66;6156519;28;20046;-90
2023/06/29 12:41:46;;;;;;;13.70;7.70;;;;;;;26.98;100.00;100454.56;6148814;28;20077;-89
2023/06/29 12:44:47;;;;;;;13.75;7.47;;;;;;;26.98;100.00;100446.59;6153212;28;20595;-90
2023/06/29 12:47:49;;;;;;;13.55;7.22;;;;;;;27.02;100.00;100445.09;6133284;28;20473;-90
2023/06/29 12:50:58;;;;;;;10.00;6.80;;;;;;;27.07;100.00;100448.69;6137794;28;20421;-89
2023/06/29 12:53:59;;;;;;;13.02;7.32;;;;;;;27.12;100.00;100439.22;6135678;28;20040;-90
2023/06/29 12:57:01;;;;;;;11.40;7.57;;;;;;;27.27;100.00;100440.34;6141404;28;20051;-90
2023/06/29 13:00:05;;;;;;;13.50;7.32;;;;;;;27.33;100.00;100440.47;6144180;28;20047;-90
2023/06/29 13:03:11;;;;;;;12.93;8.05;;;;;;;27.42;100.00;100439.06;6135363;28;20054;-90
2023/06/29 13:06:13;;;;;;;11.00;6.82;;;;;;;27.41;100.00;100443.59;6143288;28;20042;-89
2023/06/29 13:09:15;;;;;;;12.40;7.50;;;;;;;27.47;100.00;100436.50;6150452;28;20054;-89
2023/06/29 13:12:19;;;;;;;15.73;7.88;;;;;;;27.47;100.00;100425.88;6137421;28;20494;-89
2023/06/29 13:15:21;;;;;;;13.75;8.63;;;;;;;27.47;100.00;100432.00;6141092;28;20279;-89
2023/06/29 13:18:24;;;;;;;13.75;9.38;;;;;;;27.34;100.00;100431.47;6142440;28;20397;-90
2023/06/29 13:21:26;;;;;;;16.08;9.30;;;;;;;27.22;100.00;100429.63;6145576;28;20047;-89
2023/06/29 13:24:29;;;;;;;13.02;8.65;;;;;;;27.18;100.00;100430.28;6142559;28;20043;-90
2023/06/29 13:27:31;;;;;;;15.38;9.27;;;;;;;27.23;100.00;100428.59;6142169;28;20596;-90
2023/06/29 13:30:32;;;;;;;13.68;8.90;;;;;;;27.35;100.00;100423.22;6149413;28;20193;-90
2023/06/29 13:33:34;;;;;;;11.75;8.30;;;;;;;27.52;100.00;100423.31;6152754;28;20046;-89
2023/06/29 13:36:36;;;;;;;13.32;8.20;;;;;;;27.62;100.00;100428.03;6152486;28;20075;-90
2023/06/29 13:39:40;;;;;;;13.45;8.77;;;;;;;27.82;100.00;100427.63;6140248;28;20046;-90
2023/06/29 13:42:42;;;;;;;14.68;8.85;;;;;;;27.92;100.00;100423.34;6152906;28;20077;-90
2023/06/29 13:45:45;;;;;;;14.38;8.38;;;;;;;28.01;100.00;100420.28;6141727;28;20390;-90
2023/06/29 13:48:50;;;;;;;14.85;8.85;;;;;;;28.11;100.00;100415.94;6133593;28;20193;-90
2023/06/29 13:51:52;;;;;;;12.43;8.10;;;;;;;28.25;100.00;100413.78;6142808;28;20046;-90
2023/06/29 13:54:54;;;;;;;12.25;8.57;;;;;;;28.43;100.00;100407.41;6143567;28;20568;-90
2023/06/29 13:57:57;;;;;;;12.75;7.90;;;;;;;28.42;100.00;100415.63;6145234;28;20046;-90